Terminal Aerodrome Forecast
Issued by NWS

Home | Current Version | Previous Version | Text Only | Print | Product List | Glossary On
Versions: 1 2 3 4 5 6 7 8 9 10 11 12 13 14 15 16 17 18 19
000
FTUS43 KDMX 222339
TAFFOD
TAF
KFOD 222339Z 2300/2324 24005KT P6SM VCTS FEW070CB BKN100
     FM230300 34007KT P6SM VCSH BKN080
     FM230500 34006KT P6SM BKN060
     FM231700 34011KT P6SM VCSH BKN040=

USA.gov is the U.S. government's official web portal to all federal, state and local government web resources and services.